sensor_id;sensor_type;location;lat;lon;timestamp;pressure;altitude;pressure_sealevel;temperature;humidity
11395;BME280;5753;54.402;10.220;2022-12-18T00:01:03;102839.44;;;4.49;47.14
11395;BME280;5753;54.402;10.220;2022-12-18T00:03:33;102852.34;;;3.82;48.88
11395;BME280;5753;54.402;10.220;2022-12-18T00:05:59;102855.91;;;5.13;46.03
11395;BME280;5753;54.402;10.220;2022-12-18T00:08:25;102877.31;;;3.64;48.29
11395;BME280;5753;54.402;10.220;2022-12-18T00:10:52;102871.09;;;4.51;47.48
11395;BME280;5753;54.402;10.220;2022-12-18T00:13:18;102876.44;;;3.20;49.65
11395;BME280;5753;54.402;10.220;2022-12-18T00:15:44;102854.84;;;5.71;44.24
11395;BME280;5753;54.402;10.220;2022-12-18T00:18:10;102869.13;;;4.02;47.85
11395;BME280;5753;54.402;10.220;2022-12-18T00:20:38;102866.41;;;4.69;47.32
11395;BME280;5753;54.402;10.220;2022-12-18T00:23:05;102861.31;;;4.92;46.03
11395;BME280;5753;54.402;10.220;2022-12-18T00:25:36;102859.22;;;3.83;48.27
11395;BME280;5753;54.402;10.220;2022-12-18T00:28:03;102857.53;;;4.52;47.34
11395;BME280;5753;54.402;10.220;2022-12-18T00:30:29;102868.41;;;4.26;47.93
11395;BME280;5753;54.402;10.220;2022-12-18T00:32:57;102867.53;;;4.61;46.94
11395;BME280;5753;54.402;10.220;2022-12-18T00:35:23;102865.88;;;3.15;49.66
11395;BME280;5753;54.402;10.220;2022-12-18T00:37:49;102855.66;;;3.81;48.86
11395;BME280;5753;54.402;10.220;2022-12-18T00:40:15;102855.72;;;3.71;48.32
11395;BME280;5753;54.402;10.220;2022-12-18T00:42:42;102845.63;;;3.17;49.89
11395;BME280;5753;54.402;10.220;2022-12-18T00:45:26;102839.22;;;3.22;50.04
11395;BME280;5753;54.402;10.220;2022-12-18T00:47:52;102852.66;;;4.43;47.62
11395;BME280;5753;54.402;10.220;2022-12-18T00:50:19;102856.00;;;4.42;46.60
11395;BME280;5753;54.402;10.220;2022-12-18T00:52:45;102850.28;;;4.11;46.87
11395;BME280;5753;54.402;10.220;2022-12-18T00:55:12;102861.91;;;3.96;48.19
11395;BME280;5753;54.402;10.220;2022-12-18T00:57:38;102870.50;;;3.09;49.94
11395;BME280;5753;54.402;10.220;2022-12-18T01:00:06;102860.81;;;3.37;48.59
11395;BME280;5753;54.402;10.220;2022-12-18T01:02:33;102867.13;;;3.98;47.84
11395;BME280;5753;54.402;10.220;2022-12-18T01:04:59;102873.00;;;3.97;47.77
11395;BME280;5753;54.402;10.220;2022-12-18T01:07:25;102883.81;;;2.95;49.30
11395;BME280;5753;54.402;10.220;2022-12-18T01:09:51;102878.56;;;5.20;45.13
11395;BME280;5753;54.402;10.220;2022-12-18T01:12:18;102883.72;;;3.15;48.50
11395;BME280;5753;54.402;10.220;2022-12-18T01:14:44;102897.97;;;2.92;48.84
11395;BME280;5753;54.402;10.220;2022-12-18T01:17:10;102882.06;;;3.82;47.44
11395;BME280;5753;54.402;10.220;2022-12-18T01:19:36;102885.50;;;3.60;48.45
11395;BME280;5753;54.402;10.220;2022-12-18T01:22:02;102874.13;;;4.00;47.19
11395;BME280;5753;54.402;10.220;2022-12-18T01:24:29;102875.69;;;2.79;50.50
11395;BME280;5753;54.402;10.220;2022-12-18T01:26:55;102867.03;;;4.08;47.48
11395;BME280;5753;54.402;10.220;2022-12-18T01:29:23;102869.19;;;4.60;46.22
11395;BME280;5753;54.402;10.220;2022-12-18T01:31:49;102877.47;;;4.23;47.19
11395;BME280;5753;54.402;10.220;2022-12-18T01:34:15;102882.09;;;3.38;48.12
11395;BME280;5753;54.402;10.220;2022-12-18T01:36:41;102904.03;;;2.31;50.36
11395;BME280;5753;54.402;10.220;2022-12-18T01:39:12;102895.81;;;3.84;47.82
11395;BME280;5753;54.402;10.220;2022-12-18T01:41:39;102905.94;;;3.28;48.68
11395;BME280;5753;54.402;10.220;2022-12-18T01:47:38;102906.56;;;2.62;49.82
11395;BME280;5753;54.402;10.220;2022-12-18T01:50:15;102902.63;;;4.52;45.96
11395;BME280;5753;54.402;10.220;2022-12-18T01:52:51;102891.41;;;3.71;47.79
11395;BME280;5753;54.402;10.220;2022-12-18T01:55:20;102904.25;;;1.43;52.19
11395;BME280;5753;54.402;10.220;2022-12-18T01:57:49;102906.84;;;2.24;50.77
11395;BME280;5753;54.402;10.220;2022-12-18T02:00:19;102900.28;;;3.10;49.75
11395;BME280;5753;54.402;10.220;2022-12-18T02:02:46;102896.84;;;2.78;48.28
11395;BME280;5753;54.402;10.220;2022-12-18T02:16:26;102895.28;;;4.45;45.46
11395;BME280;5753;54.402;10.220;2022-12-18T02:19:03;102900.44;;;3.56;48.21
11395;BME280;5753;54.402;10.220;2022-12-18T02:21:54;102904.78;;;3.03;48.00
11395;BME280;5753;54.402;10.220;2022-12-18T02:27:21;102882.41;;;3.64;47.25
11395;BME280;5753;54.402;10.220;2022-12-18T02:29:55;102890.66;;;2.64;49.47
11395;BME280;5753;54.402;10.220;2022-12-18T02:32:30;102897.69;;;3.21;48.69
11395;BME280;5753;54.402;10.220;2022-12-18T02:34:59;102905.16;;;3.07;48.36
11395;BME280;5753;54.402;10.220;2022-12-18T02:37:28;102922.13;;;2.24;50.07
11395;BME280;5753;54.402;10.220;2022-12-18T02:39:57;102927.97;;;2.13;50.86
11395;BME280;5753;54.402;10.220;2022-12-18T02:42:25;102910.50;;;3.10;49.63
11395;BME280;5753;54.402;10.220;2022-12-18T02:44:53;102919.78;;;2.68;49.02
11395;BME280;5753;54.402;10.220;2022-12-18T02:47:22;102924.25;;;3.12;48.62
11395;BME280;5753;54.402;10.220;2022-12-18T02:49:58;102911.72;;;3.47;47.53
11395;BME280;5753;54.402;10.220;2022-12-18T02:55:20;102920.44;;;3.07;48.41
11395;BME280;5753;54.402;10.220;2022-12-18T03:01:38;102905.28;;;3.74;47.79
11395;BME280;5753;54.402;10.220;2022-12-18T03:03:56;102910.09;;;2.84;49.29
11395;BME280;5753;54.402;10.220;2022-12-18T03:06:51;102900.41;;;3.77;48.18
11395;BME280;5753;54.402;10.220;2022-12-18T03:09:46;102918.00;;;3.09;48.93
11395;BME280;5753;54.402;10.220;2022-12-18T03:12:32;102908.56;;;2.86;49.23
11395;BME280;5753;54.402;10.220;2022-12-18T03:17:56;102905.34;;;2.16;50.55
11395;BME280;5753;54.402;10.220;2022-12-18T03:20:26;102895.19;;;3.10;49.10
11395;BME280;5753;54.402;10.220;2022-12-18T03:22:59;102909.91;;;3.25;48.46
11395;BME280;5753;54.402;10.220;2022-12-18T03:25:28;102903.53;;;2.98;49.56
11395;BME280;5753;54.402;10.220;2022-12-18T03:27:58;102902.28;;;1.89;51.83
11395;BME280;5753;54.402;10.220;2022-12-18T03:30:28;102898.66;;;3.76;46.94
11395;BME280;5753;54.402;10.220;2022-12-18T03:33:23;102914.69;;;3.42;48.14
11395;BME280;5753;54.402;10.220;2022-12-18T03:35:50;102920.59;;;2.06;50.58
11395;BME280;5753;54.402;10.220;2022-12-18T03:38:16;102919.97;;;3.01;49.98
11395;BME280;5753;54.402;10.220;2022-12-18T03:43:37;102905.84;;;2.95;50.13
11395;BME280;5753;54.402;10.220;2022-12-18T03:46:24;102918.97;;;2.37;49.94
11395;BME280;5753;54.402;10.220;2022-12-18T03:49:00;102903.25;;;2.63;51.55
11395;BME280;5753;54.402;10.220;2022-12-18T03:51:38;102900.28;;;3.10;49.49
11395;BME280;5753;54.402;10.220;2022-12-18T03:54:07;102898.84;;;2.09;51.71
11395;BME280;5753;54.402;10.220;2022-12-18T03:56:43;102892.38;;;3.61;48.04
11395;BME280;5753;54.402;10.220;2022-12-18T03:59:12;102889.81;;;1.82;52.36
11395;BME280;5753;54.402;10.220;2022-12-18T04:01:42;102901.72;;;1.53;53.15
11395;BME280;5753;54.402;10.220;2022-12-18T04:04:13;102893.13;;;3.16;49.38
11395;BME280;5753;54.402;10.220;2022-12-18T04:06:41;102895.41;;;2.92;50.37
11395;BME280;5753;54.402;10.220;2022-12-18T04:09:08;102886.72;;;3.00;49.03
11395;BME280;5753;54.402;10.220;2022-12-18T04:11:35;102879.88;;;3.21;48.55
11395;BME280;5753;54.402;10.220;2022-12-18T04:14:01;102878.25;;;2.89;49.64
11395;BME280;5753;54.402;10.220;2022-12-18T04:16:28;102880.72;;;3.31;48.41
11395;BME280;5753;54.402;10.220;2022-12-18T04:18:54;102891.19;;;1.19;53.94
11395;BME280;5753;54.402;10.220;2022-12-18T04:21:20;102893.38;;;2.25;50.69
11395;BME280;5753;54.402;10.220;2022-12-18T04:23:47;102892.88;;;2.19;51.35
11395;BME280;5753;54.402;10.220;2022-12-18T04:26:13;102897.78;;;2.58;50.75
11395;BME280;5753;54.402;10.220;2022-12-18T04:28:39;102904.38;;;2.66;49.63
11395;BME280;5753;54.402;10.220;2022-12-18T04:31:05;102909.72;;;3.11;48.70
11395;BME280;5753;54.402;10.220;2022-12-18T04:33:31;102921.31;;;1.74;51.51
11395;BME280;5753;54.402;10.220;2022-12-18T04:35:58;102932.72;;;2.91;50.27
11395;BME280;5753;54.402;10.220;2022-12-18T04:38:24;102937.94;;;3.25;48.52
11395;BME280;5753;54.402;10.220;2022-12-18T04:40:50;102942.19;;;2.62;50.75
11395;BME280;5753;54.402;10.220;2022-12-18T04:43:16;102946.34;;;3.34;48.59
11395;BME280;5753;54.402;10.220;2022-12-18T04:45:42;102946.66;;;2.24;50.94
11395;BME280;5753;54.402;10.220;2022-12-18T04:48:08;102946.97;;;3.31;49.13
11395;BME280;5753;54.402;10.220;2022-12-18T04:50:34;102955.44;;;2.17;51.74
11395;BME280;5753;54.402;10.220;2022-12-18T04:53:01;102952.78;;;2.56;49.25
11395;BME280;5753;54.402;10.220;2022-12-18T04:55:27;102949.34;;;2.45;50.60
11395;BME280;5753;54.402;10.220;2022-12-18T04:57:59;102940.75;;;1.24;52.89
11395;BME280;5753;54.402;10.220;2022-12-18T05:00:25;102936.59;;;1.84;50.62
11395;BME280;5753;54.402;10.220;2022-12-18T05:02:51;102950.09;;;1.15;53.73
11395;BME280;5753;54.402;10.220;2022-12-18T05:05:18;102942.47;;;2.14;52.11
11395;BME280;5753;54.402;10.220;2022-12-18T05:07:44;102946.16;;;1.97;51.07
11395;BME280;5753;54.402;10.220;2022-12-18T05:10:10;102943.06;;;1.81;51.23
11395;BME280;5753;54.402;10.220;2022-12-18T05:12:36;102938.81;;;2.41;49.51
11395;BME280;5753;54.402;10.220;2022-12-18T05:15:26;102938.41;;;2.46;50.81
11395;BME280;5753;54.402;10.220;2022-12-18T05:17:52;102940.25;;;3.22;48.71
11395;BME280;5753;54.402;10.220;2022-12-18T05:20:18;102945.72;;;2.94;47.45
11395;BME280;5753;54.402;10.220;2022-12-18T05:22:45;102950.38;;;3.42;47.35
11395;BME280;5753;54.402;10.220;2022-12-18T05:25:11;102945.28;;;3.86;46.75
11395;BME280;5753;54.402;10.220;2022-12-18T05:27:37;102962.06;;;2.15;49.51
11395;BME280;5753;54.402;10.220;2022-12-18T05:30:04;102955.13;;;2.95;49.31
11395;BME280;5753;54.402;10.220;2022-12-18T05:32:30;102954.81;;;3.12;47.95
11395;BME280;5753;54.402;10.220;2022-12-18T05:34:56;102956.41;;;3.54;46.67
11395;BME280;5753;54.402;10.220;2022-12-18T05:37:23;102951.53;;;3.03;47.24
11395;BME280;5753;54.402;10.220;2022-12-18T05:39:49;102961.69;;;1.51;51.38
11395;BME280;5753;54.402;10.220;2022-12-18T05:42:15;102955.44;;;1.97;49.08
11395;BME280;5753;54.402;10.220;2022-12-18T05:44:41;102947.44;;;4.36;45.01
11395;BME280;5753;54.402;10.220;2022-12-18T05:47:08;102953.63;;;3.51;46.24
11395;BME280;5753;54.402;10.220;2022-12-18T05:49:34;102964.13;;;2.39;48.82
11395;BME280;5753;54.402;10.220;2022-12-18T05:52:01;102954.63;;;3.97;45.45
11395;BME280;5753;54.402;10.220;2022-12-18T05:54:28;102953.66;;;4.28;43.77
11395;BME280;5753;54.402;10.220;2022-12-18T05:56:54;102961.50;;;2.90;47.07
11395;BME280;5753;54.402;10.220;2022-12-18T05:59:20;102971.13;;;2.42;48.93
11395;BME280;5753;54.402;10.220;2022-12-18T06:01:46;102972.75;;;3.14;46.46
11395;BME280;5753;54.402;10.220;2022-12-18T06:04:13;102965.47;;;2.76;48.68
11395;BME280;5753;54.402;10.220;2022-12-18T06:06:39;102975.50;;;2.95;47.23
11395;BME280;5753;54.402;10.220;2022-12-18T06:09:05;102974.75;;;1.95;49.30
11395;BME280;5753;54.402;10.220;2022-12-18T06:11:35;102976.41;;;3.28;46.48
11395;BME280;5753;54.402;10.220;2022-12-18T06:14:02;102978.13;;;2.44;48.45
11395;BME280;5753;54.402;10.220;2022-12-18T06:16:29;102973.78;;;2.53;48.76
11395;BME280;5753;54.402;10.220;2022-12-18T06:18:57;102983.66;;;2.91;47.56
11395;BME280;5753;54.402;10.220;2022-12-18T06:21:24;102982.91;;;2.01;49.23
11395;BME280;5753;54.402;10.220;2022-12-18T06:23:50;102981.50;;;1.45;49.85
11395;BME280;5753;54.402;10.220;2022-12-18T06:26:16;102982.44;;;1.37;52.16
11395;BME280;5753;54.402;10.220;2022-12-18T06:28:42;102970.16;;;2.82;47.66
11395;BME280;5753;54.402;10.220;2022-12-18T06:31:09;102971.19;;;1.93;48.80
11395;BME280;5753;54.402;10.220;2022-12-18T06:33:36;102970.19;;;1.91;49.89
11395;BME280;5753;54.402;10.220;2022-12-18T06:36:11;102971.69;;;1.88;50.27
11395;BME280;5753;54.402;10.220;2022-12-18T06:38:40;102979.91;;;2.45;48.32
11395;BME280;5753;54.402;10.220;2022-12-18T06:41:11;102975.22;;;1.80;49.07
11395;BME280;5753;54.402;10.220;2022-12-18T06:43:38;102976.41;;;3.28;46.00
11395;BME280;5753;54.402;10.220;2022-12-18T06:46:05;102992.59;;;2.86;46.86
11395;BME280;5753;54.402;10.220;2022-12-18T06:48:32;103000.59;;;2.30;47.41
11395;BME280;5753;54.402;10.220;2022-12-18T06:50:59;103000.72;;;2.72;46.67
11395;BME280;5753;54.402;10.220;2022-12-18T06:53:25;102992.94;;;3.01;46.65
11395;BME280;5753;54.402;10.220;2022-12-18T06:55:52;102989.41;;;2.89;45.70
11395;BME280;5753;54.402;10.220;2022-12-18T06:58:18;102988.47;;;3.40;44.94
11395;BME280;5753;54.402;10.220;2022-12-18T07:00:44;103003.41;;;1.63;48.42
11395;BME280;5753;54.402;10.220;2022-12-18T07:03:10;103001.22;;;1.97;47.68
11395;BME280;5753;54.402;10.220;2022-12-18T07:05:40;102999.81;;;3.02;46.01
11395;BME280;5753;54.402;10.220;2022-12-18T07:08:06;103001.59;;;2.82;46.27
11395;BME280;5753;54.402;10.220;2022-12-18T07:10:33;103011.53;;;2.29;48.04
11395;BME280;5753;54.402;10.220;2022-12-18T07:12:59;102996.94;;;2.46;47.35
11395;BME280;5753;54.402;10.220;2022-12-18T07:15:25;103012.97;;;1.76;48.64
11395;BME280;5753;54.402;10.220;2022-12-18T07:17:51;103020.44;;;1.16;49.89
11395;BME280;5753;54.402;10.220;2022-12-18T07:20:17;103017.63;;;1.61;49.09
11395;BME280;5753;54.402;10.220;2022-12-18T07:22:43;103028.72;;;2.21;48.40
11395;BME280;5753;54.402;10.220;2022-12-18T07:25:09;103027.44;;;2.36;47.17
11395;BME280;5753;54.402;10.220;2022-12-18T07:27:36;103039.91;;;1.45;50.13
11395;BME280;5753;54.402;10.220;2022-12-18T07:30:02;103038.34;;;2.05;48.26
11395;BME280;5753;54.402;10.220;2022-12-18T07:32:29;103032.31;;;2.64;47.33
11395;BME280;5753;54.402;10.220;2022-12-18T07:34:56;103042.16;;;3.32;45.37
11395;BME280;5753;54.402;10.220;2022-12-18T07:37:22;103055.41;;;0.54;50.40
11395;BME280;5753;54.402;10.220;2022-12-18T07:39:48;103067.84;;;0.70;50.81
11395;BME280;5753;54.402;10.220;2022-12-18T07:42:14;103063.19;;;2.17;48.32
11395;BME280;5753;54.402;10.220;2022-12-18T07:44:59;103075.13;;;1.79;48.28
11395;BME280;5753;54.402;10.220;2022-12-18T07:47:27;103069.56;;;1.54;48.59
11395;BME280;5753;54.402;10.220;2022-12-18T07:49:54;103074.09;;;0.92;52.06
11395;BME280;5753;54.402;10.220;2022-12-18T07:52:20;103071.09;;;1.52;49.99
11395;BME280;5753;54.402;10.220;2022-12-18T07:54:47;103078.13;;;2.43;46.83
11395;BME280;5753;54.402;10.220;2022-12-18T07:57:16;103073.16;;;2.75;46.79
11395;BME280;5753;54.402;10.220;2022-12-18T07:59:43;103078.31;;;1.48;49.59
11395;BME280;5753;54.402;10.220;2022-12-18T08:02:09;103077.41;;;1.76;48.47
11395;BME280;5753;54.402;10.220;2022-12-18T08:04:35;103073.63;;;1.52;50.39
11395;BME280;5753;54.402;10.220;2022-12-18T08:07:01;103079.03;;;2.64;46.62
11395;BME280;5753;54.402;10.220;2022-12-18T08:09:28;103071.09;;;3.12;46.40
11395;BME280;5753;54.402;10.220;2022-12-18T08:11:54;103082.75;;;0.94;50.44
11395;BME280;5753;54.402;10.220;2022-12-18T08:14:21;103083.47;;;1.02;49.64
11395;BME280;5753;54.402;10.220;2022-12-18T08:16:47;103083.69;;;3.21;46.02
11395;BME280;5753;54.402;10.220;2022-12-18T08:19:13;103082.31;;;1.94;48.32
11395;BME280;5753;54.402;10.220;2022-12-18T08:21:40;103071.50;;;2.66;46.49
11395;BME280;5753;54.402;10.220;2022-12-18T08:24:06;103071.44;;;1.76;48.72
11395;BME280;5753;54.402;10.220;2022-12-18T08:26:32;103073.56;;;2.70;46.68
11395;BME280;5753;54.402;10.220;2022-12-18T08:28:59;103072.63;;;3.62;44.50
11395;BME280;5753;54.402;10.220;2022-12-18T08:31:27;103072.28;;;2.55;46.74
11395;BME280;5753;54.402;10.220;2022-12-18T08:33:54;103066.69;;;2.59;47.71
11395;BME280;5753;54.402;10.220;2022-12-18T08:36:21;103072.66;;;3.00;45.79
11395;BME280;5753;54.402;10.220;2022-12-18T08:38:48;103074.44;;;3.11;45.76
11395;BME280;5753;54.402;10.220;2022-12-18T08:41:16;103068.38;;;3.83;43.70
11395;BME280;5753;54.402;10.220;2022-12-18T08:43:42;103066.00;;;3.32;44.23
11395;BME280;5753;54.402;10.220;2022-12-18T08:46:30;103067.44;;;2.98;45.62
11395;BME280;5753;54.402;10.220;2022-12-18T08:48:58;103068.97;;;2.56;45.19
11395;BME280;5753;54.402;10.220;2022-12-18T08:51:24;103054.56;;;3.59;44.25
11395;BME280;5753;54.402;10.220;2022-12-18T08:53:50;103047.25;;;3.96;43.34
11395;BME280;5753;54.402;10.220;2022-12-18T08:56:16;103051.94;;;4.57;42.45
11395;BME280;5753;54.402;10.220;2022-12-18T08:58:43;103064.66;;;4.33;41.63
11395;BME280;5753;54.402;10.220;2022-12-18T09:01:11;103063.25;;;2.99;45.37
11395;BME280;5753;54.402;10.220;2022-12-18T09:03:38;103066.44;;;2.86;45.16
11395;BME280;5753;54.402;10.220;2022-12-18T09:06:04;103076.81;;;3.40;43.99
11395;BME280;5753;54.402;10.220;2022-12-18T09:08:34;103075.50;;;3.87;42.76
11395;BME280;5753;54.402;10.220;2022-12-18T09:11:00;103069.94;;;2.27;44.57
11395;BME280;5753;54.402;10.220;2022-12-18T09:13:26;103082.06;;;1.91;46.99
11395;BME280;5753;54.402;10.220;2022-12-18T09:15:54;103075.06;;;2.37;46.38
11395;BME280;5753;54.402;10.220;2022-12-18T09:18:22;103072.50;;;3.19;44.52
11395;BME280;5753;54.402;10.220;2022-12-18T09:20:48;103073.03;;;3.57;43.92
11395;BME280;5753;54.402;10.220;2022-12-18T09:23:16;103081.72;;;2.86;45.12
11395;BME280;5753;54.402;10.220;2022-12-18T09:25:42;103082.94;;;1.91;46.70
11395;BME280;5753;54.402;10.220;2022-12-18T09:28:16;103074.34;;;3.84;44.02
11395;BME280;5753;54.402;10.220;2022-12-18T09:30:46;103072.69;;;2.90;44.87
11395;BME280;5753;54.402;10.220;2022-12-18T09:33:13;103070.56;;;3.26;44.36
11395;BME280;5753;54.402;10.220;2022-12-18T09:35:40;103073.78;;;3.98;42.38
11395;BME280;5753;54.402;10.220;2022-12-18T09:38:08;103076.69;;;3.70;43.54
11395;BME280;5753;54.402;10.220;2022-12-18T09:40:40;103080.34;;;3.52;42.92
11395;BME280;5753;54.402;10.220;2022-12-18T09:43:13;103080.91;;;4.02;44.18
11395;BME280;5753;54.402;10.220;2022-12-18T09:45:44;103081.78;;;3.70;43.19
11395;BME280;5753;54.402;10.220;2022-12-18T09:48:35;103087.03;;;2.69;44.64
11395;BME280;5753;54.402;10.220;2022-12-18T09:51:52;103068.50;;;4.62;41.48
11395;BME280;5753;54.402;10.220;2022-12-18T09:54:31;103070.75;;;5.26;41.42
11395;BME280;5753;54.402;10.220;2022-12-18T09:56:58;103071.53;;;5.25;40.30
11395;BME280;5753;54.402;10.220;2022-12-18T09:59:30;103068.59;;;6.02;39.58
11395;BME280;5753;54.402;10.220;2022-12-18T10:01:57;103068.00;;;6.43;38.28
11395;BME280;5753;54.402;10.220;2022-12-18T10:04:24;103069.97;;;5.27;39.79
11395;BME280;5753;54.402;10.220;2022-12-18T10:07:00;103069.22;;;6.11;39.22
11395;BME280;5753;54.402;10.220;2022-12-18T10:10:01;103066.19;;;5.57;39.99
11395;BME280;5753;54.402;10.220;2022-12-18T10:12:39;103080.47;;;4.07;42.46
11395;BME280;5753;54.402;10.220;2022-12-18T10:15:24;103072.09;;;6.27;38.57
11395;BME280;5753;54.402;10.220;2022-12-18T10:20:55;103081.66;;;7.57;36.83
11395;BME280;5753;54.402;10.220;2022-12-18T10:23:35;103081.66;;;6.80;38.14
11395;BME280;5753;54.402;10.220;2022-12-18T10:26:07;103082.06;;;5.88;38.60
11395;BME280;5753;54.402;10.220;2022-12-18T10:28:37;103087.84;;;4.70;40.74
11395;BME280;5753;54.402;10.220;2022-12-18T10:31:15;103081.38;;;6.02;38.70
11395;BME280;5753;54.402;10.220;2022-12-18T10:33:43;103082.13;;;6.24;39.50
11395;BME280;5753;54.402;10.220;2022-12-18T10:36:09;103087.56;;;6.54;39.18
11395;BME280;5753;54.402;10.220;2022-12-18T10:38:36;103091.84;;;7.05;37.55
11395;BME280;5753;54.402;10.220;2022-12-18T10:43:50;103109.50;;;5.09;40.30
11395;BME280;5753;54.402;10.220;2022-12-18T10:46:35;103095.31;;;6.67;38.52
11395;BME280;5753;54.402;10.220;2022-12-18T10:49:01;103081.28;;;6.62;38.10
11395;BME280;5753;54.402;10.220;2022-12-18T10:51:28;103084.88;;;5.56;40.06
11395;BME280;5753;54.402;10.220;2022-12-18T10:56:33;103078.78;;;6.75;39.32
11395;BME280;5753;54.402;10.220;2022-12-18T10:59:06;103083.16;;;7.03;39.13
11395;BME280;5753;54.402;10.220;2022-12-18T11:01:53;103089.69;;;8.31;36.04
11395;BME280;5753;54.402;10.220;2022-12-18T11:04:28;103085.97;;;7.32;37.69
11395;BME280;5753;54.402;10.220;2022-12-18T11:07:00;103083.19;;;7.82;37.05
11395;BME280;5753;54.402;10.220;2022-12-18T11:12:01;103085.91;;;8.11;36.33
11395;BME280;5753;54.402;10.220;2022-12-18T11:14:33;103078.69;;;7.65;36.17
11395;BME280;5753;54.402;10.220;2022-12-18T11:17:00;103084.84;;;5.67;40.03
11395;BME280;5753;54.402;10.220;2022-12-18T11:21:53;103079.56;;;9.20;36.28
11395;BME280;5753;54.402;10.220;2022-12-18T11:24:24;103074.78;;;10.02;33.85
11395;BME280;5753;54.402;10.220;2022-12-18T11:26:52;103074.91;;;7.73;36.82
11395;BME280;5753;54.402;10.220;2022-12-18T11:29:44;103066.75;;;8.06;37.28
11395;BME280;5753;54.402;10.220;2022-12-18T11:32:43;103070.16;;;8.91;36.15
11395;BME280;5753;54.402;10.220;2022-12-18T11:37:46;103076.31;;;6.77;38.35
11395;BME280;5753;54.402;10.220;2022-12-18T11:40:17;103063.41;;;6.75;39.18
11395;BME280;5753;54.402;10.220;2022-12-18T11:42:53;103061.38;;;8.16;36.64
11395;BME280;5753;54.402;10.220;2022-12-18T11:45:29;103065.25;;;7.29;37.37
11395;BME280;5753;54.402;10.220;2022-12-18T11:48:16;103076.06;;;6.36;39.80
11395;BME280;5753;54.402;10.220;2022-12-18T11:50:54;103074.84;;;6.80;39.54
11395;BME280;5753;54.402;10.220;2022-12-18T11:53:21;103070.59;;;7.58;37.18
11395;BME280;5753;54.402;10.220;2022-12-18T12:01:56;103082.13;;;6.74;39.48
11395;BME280;5753;54.402;10.220;2022-12-18T12:09:25;103059.63;;;7.35;38.50
11395;BME280;5753;54.402;10.220;2022-12-18T12:20:19;103037.38;;;6.69;39.01
11395;BME280;5753;54.402;10.220;2022-12-18T12:22:53;103028.53;;;7.56;37.72
11395;BME280;5753;54.402;10.220;2022-12-18T12:36:20;103032.38;;;5.73;40.42
11395;BME280;5753;54.402;10.220;2022-12-18T12:38:56;103031.81;;;6.13;40.46
11395;BME280;5753;54.402;10.220;2022-12-18T12:41:25;103019.06;;;7.42;37.98
11395;BME280;5753;54.402;10.220;2022-12-18T12:44:19;103016.13;;;6.09;41.21
11395;BME280;5753;54.402;10.220;2022-12-18T12:46:48;103017.41;;;4.50;43.41
11395;BME280;5753;54.402;10.220;2022-12-18T12:49:18;103006.53;;;6.81;39.24
11395;BME280;5753;54.402;10.220;2022-12-18T12:52:00;102997.56;;;6.87;39.36
11395;BME280;5753;54.402;10.220;2022-12-18T12:54:32;102998.34;;;7.00;38.99
11395;BME280;5753;54.402;10.220;2022-12-18T12:57:26;102990.06;;;6.39;39.42
11395;BME280;5753;54.402;10.220;2022-12-18T13:05:51;102961.59;;;5.36;41.65
11395;BME280;5753;54.402;10.220;2022-12-18T13:08:24;102948.84;;;5.98;40.99
11395;BME280;5753;54.402;10.220;2022-12-18T13:10:53;102943.16;;;5.17;42.57
11395;BME280;5753;54.402;10.220;2022-12-18T13:13:54;102926.53;;;5.47;42.09
11395;BME280;5753;54.402;10.220;2022-12-18T13:16:23;102936.75;;;5.47;41.37
11395;BME280;5753;54.402;10.220;2022-12-18T13:18:57;102934.59;;;5.05;42.53
11395;BME280;5753;54.402;10.220;2022-12-18T13:21:29;102936.84;;;4.89;43.64
11395;BME280;5753;54.402;10.220;2022-12-18T13:23:57;102943.91;;;4.34;43.77
11395;BME280;5753;54.402;10.220;2022-12-18T13:26:40;102945.94;;;5.32;41.76
11395;BME280;5753;54.402;10.220;2022-12-18T13:29:06;102958.59;;;5.30;42.13
11395;BME280;5753;54.402;10.220;2022-12-18T13:34:22;102965.16;;;5.27;42.74
11395;BME280;5753;54.402;10.220;2022-12-18T13:36:48;102968.69;;;4.25;43.69
11395;BME280;5753;54.402;10.220;2022-12-18T13:44:57;102963.44;;;6.88;38.56
11395;BME280;5753;54.402;10.220;2022-12-18T13:47:36;102958.25;;;6.36;40.01
11395;BME280;5753;54.402;10.220;2022-12-18T13:50:22;102950.59;;;5.26;41.51
11395;BME280;5753;54.402;10.220;2022-12-18T13:52:49;102957.28;;;5.24;41.63
11395;BME280;5753;54.402;10.220;2022-12-18T13:55:19;102965.69;;;6.19;40.19
11395;BME280;5753;54.402;10.220;2022-12-18T13:57:45;102964.88;;;4.42;42.80
11395;BME280;5753;54.402;10.220;2022-12-18T14:00:26;102963.91;;;5.45;41.04
11395;BME280;5753;54.402;10.220;2022-12-18T14:02:55;102967.72;;;4.92;42.35
11395;BME280;5753;54.402;10.220;2022-12-18T14:05:34;102964.06;;;5.60;41.06
11395;BME280;5753;54.402;10.220;2022-12-18T14:08:22;102968.41;;;4.78;42.59
11395;BME280;5753;54.402;10.220;2022-12-18T14:10:50;102969.78;;;4.51;41.85
11395;BME280;5753;54.402;10.220;2022-12-18T14:13:41;102965.69;;;5.46;40.74
11395;BME280;5753;54.402;10.220;2022-12-18T14:16:11;102970.75;;;4.29;42.98
11395;BME280;5753;54.402;10.220;2022-12-18T14:21:25;102975.81;;;5.81;39.63
11395;BME280;5753;54.402;10.220;2022-12-18T14:26:37;102964.44;;;4.36;42.30
11395;BME280;5753;54.402;10.220;2022-12-18T14:29:28;102953.00;;;4.31;42.62
11395;BME280;5753;54.402;10.220;2022-12-18T14:32:14;102958.38;;;3.90;42.33
11395;BME280;5753;54.402;10.220;2022-12-18T14:34:52;102961.59;;;4.21;42.42
11395;BME280;5753;54.402;10.220;2022-12-18T14:37:24;102965.41;;;4.83;42.34
11395;BME280;5753;54.402;10.220;2022-12-18T14:42:20;102954.69;;;4.08;43.06
11395;BME280;5753;54.402;10.220;2022-12-18T14:44:47;102957.28;;;4.77;42.11
11395;BME280;5753;54.402;10.220;2022-12-18T14:47:16;102955.28;;;4.73;41.94
11395;BME280;5753;54.402;10.220;2022-12-18T14:49:43;102961.94;;;5.06;40.58
11395;BME280;5753;54.402;10.220;2022-12-18T14:52:29;102966.25;;;3.71;44.34
11395;BME280;5753;54.402;10.220;2022-12-18T14:54:57;102962.00;;;2.96;45.64